Time;durP1;ratioP1;P1;durP2;ratioP2;P2;SDS_P1;SDS_P2;PMS_P1;PMS_P2;Temp;Humidity;BMP_temperature;BMP_pressure;BME280_temperature;BME280_humidity;BME280_pressure;Samples;Min_cycle;Max_cycle;Signal;HPM_P1;HPM_P2
2021/06/21 00:02:27;;;;;;;6.60;4.90;;;23.80;99.90;;;;;;5039404;28;20224;-84
2021/06/21 00:04:55;;;;;;;5.85;5.05;;;23.90;99.90;;;;;;5021456;28;20262;-85
2021/06/21 00:07:22;;;;;;;6.53;4.40;;;23.80;99.90;;;;;;5040438;28;20200;-85
2021/06/21 00:09:50;;;;;;;5.07;4.22;;;23.80;99.90;;;;;;5007228;28;20204;-84
2021/06/21 00:12:19;;;;;;;6.25;4.65;;;23.80;99.90;;;;;;5022906;28;20228;-84
2021/06/21 00:14:47;;;;;;;6.65;4.65;;;23.80;99.90;;;;;;5023085;28;20271;-85
2021/06/21 00:17:16;;;;;;;5.45;4.85;;;23.70;99.90;;;;;;5024953;28;20572;-85
2021/06/21 00:19:43;;;;;;;4.88;4.32;;;23.60;99.90;;;;;;5063034;28;20282;-85
2021/06/21 00:22:10;;;;;;;6.43;4.57;;;23.60;99.90;;;;;;5045303;28;20315;-85
2021/06/21 00:24:37;;;;;;;5.43;4.68;;;23.60;99.90;;;;;;5028456;28;20218;-85
2021/06/21 00:27:10;;;;;;;4.95;4.45;;;23.60;99.90;;;;;;5062766;28;20199;-85
2021/06/21 00:29:39;;;;;;;6.28;4.53;;;23.60;99.90;;;;;;5041797;28;20290;-84
2021/06/21 00:32:07;;;;;;;5.95;5.32;;;23.40;99.90;;;;;;5050025;28;20754;-84
2021/06/21 00:34:35;;;;;;;5.20;4.70;;;23.40;99.90;;;;;;5060117;28;20218;-85
2021/06/21 00:37:02;;;;;;;5.00;4.50;;;23.30;99.90;;;;;;5045130;28;20207;-84
2021/06/21 00:39:30;;;;;;;7.47;5.25;;;23.10;99.90;;;;;;5064072;28;20211;-84
2021/06/21 00:41:57;;;;;;;6.63;5.50;;;23.00;99.90;;;;;;5017002;28;20236;-84
2021/06/21 00:44:24;;;;;;;6.20;5.63;;;23.00;99.90;;;;;;5042511;28;20618;-84
2021/06/21 00:46:52;;;;;;;6.13;5.13;;;23.00;99.90;;;;;;5043671;28;20223;-84
2021/06/21 00:49:19;;;;;;;8.52;4.95;;;23.00;99.90;;;;;;5044641;28;20805;-84
2021/06/21 00:51:46;;;;;;;5.90;5.32;;;22.90;99.90;;;;;;5040151;28;20215;-84
2021/06/21 00:54:14;;;;;;;5.65;5.07;;;23.00;99.90;;;;;;5066016;28;20192;-85
2021/06/21 00:56:41;;;;;;;7.47;5.35;;;23.00;99.90;;;;;;5047098;28;20222;-84
2021/06/21 00:59:08;;;;;;;7.90;5.72;;;22.90;99.90;;;;;;5067000;28;20222;-84
2021/06/21 01:01:35;;;;;;;4.55;4.10;;;22.80;99.90;;;;;;5065043;28;20220;-84
2021/06/21 01:04:03;;;;;;;8.02;6.30;;;22.90;99.90;;;;;;5044829;28;20226;-84
2021/06/21 01:06:30;;;;;;;7.00;4.82;;;22.80;99.90;;;;;;5064569;28;20234;-85
2021/06/21 01:08:58;;;;;;;6.90;5.85;;;22.80;99.90;;;;;;5057582;28;20207;-85
2021/06/21 01:11:38;;;;;;;5.57;5.03;;;22.70;99.90;;;;;;5063038;28;20226;-85
2021/06/21 01:14:11;;;;;;;6.88;5.63;;;22.70;99.90;;;;;;5063581;28;20199;-85
2021/06/21 01:16:43;;;;;;;10.40;6.05;;;22.60;99.90;;;;;;5080450;28;20187;-84
2021/06/21 01:19:18;;;;;;;7.05;5.63;;;22.60;99.90;;;;;;5060850;28;20172;-85
2021/06/21 01:22:22;;;;;;;6.53;5.55;;;22.50;99.90;;;;;;5060307;28;20219;-84
2021/06/21 01:25:07;;;;;;;6.05;5.43;;;22.50;99.90;;;;;;5043583;28;20228;-84
2021/06/21 01:27:47;;;;;;;8.90;6.15;;;22.50;99.90;;;;;;5043836;28;20179;-84
2021/06/21 01:30:15;;;;;;;8.55;6.55;;;22.60;99.90;;;;;;5059480;28;20192;-85
2021/06/21 01:32:46;;;;;;;8.32;5.75;;;22.40;99.90;;;;;;5043575;28;20215;-84
2021/06/21 01:35:19;;;;;;;11.90;7.03;;;22.40;99.90;;;;;;5060534;28;20176;-85
2021/06/21 01:37:47;;;;;;;11.20;7.05;;;22.40;99.90;;;;;;5060576;28;20212;-85
2021/06/21 01:40:18;;;;;;;8.18;6.28;;;22.30;99.90;;;;;;5043067;28;20214;-84
2021/06/21 01:42:49;;;;;;;6.68;5.70;;;22.20;99.90;;;;;;5026781;28;20228;-85
2021/06/21 01:45:17;;;;;;;10.80;6.45;;;22.20;99.90;;;;;;5041634;28;20230;-86
2021/06/21 01:47:49;;;;;;;7.22;6.50;;;22.20;99.90;;;;;;5049699;28;20222;-86
2021/06/21 01:50:19;;;;;;;7.57;6.13;;;22.20;99.90;;;;;;5031896;28;20195;-85
2021/06/21 01:52:51;;;;;;;9.85;7.60;;;22.30;99.90;;;;;;5048787;28;20239;-86
2021/06/21 01:55:21;;;;;;;8.90;7.82;;;22.20;99.90;;;;;;5046544;28;20196;-86
2021/06/21 01:57:49;;;;;;;11.82;8.75;;;22.30;99.90;;;;;;5046208;28;20198;-86
2021/06/21 02:00:17;;;;;;;8.05;7.07;;;22.30;99.90;;;;;;5044825;28;20204;-86
2021/06/21 02:02:46;;;;;;;11.45;7.68;;;22.30;99.90;;;;;;5045391;28;20216;-86
2021/06/21 02:05:16;;;;;;;9.27;8.25;;;22.30;99.90;;;;;;5027353;28;20247;-86
2021/06/21 02:07:46;;;;;;;6.88;6.10;;;22.30;99.90;;;;;;5033434;28;20223;-86
2021/06/21 02:10:14;;;;;;;8.18;6.38;;;22.10;99.90;;;;;;5028679;28;20200;-86
2021/06/21 02:12:43;;;;;;;11.73;7.18;;;22.00;99.90;;;;;;5046039;28;20223;-86
2021/06/21 02:15:11;;;;;;;8.70;7.90;;;21.80;99.90;;;;;;5047894;28;20196;-86
2021/06/21 02:17:39;;;;;;;9.63;8.40;;;22.00;99.90;;;;;;5046785;28;20212;-86
2021/06/21 02:20:09;;;;;;;7.90;7.10;;;21.90;99.90;;;;;;5025739;28;20238;-86
2021/06/21 02:22:38;;;;;;;10.70;7.40;;;21.70;99.90;;;;;;5044823;28;20238;-86
2021/06/21 02:25:08;;;;;;;9.68;8.57;;;21.90;99.90;;;;;;5044218;28;20228;-86
2021/06/21 02:27:38;;;;;;;9.18;8.27;;;21.90;99.90;;;;;;5030565;28;20235;-87
2021/06/21 02:30:08;;;;;;;8.32;7.50;;;22.00;99.90;;;;;;5066270;28;20203;-86
2021/06/21 02:32:35;;;;;;;10.80;8.40;;;21.80;99.90;;;;;;5066876;28;20277;-86
2021/06/21 02:35:04;;;;;;;9.55;8.02;;;21.90;99.90;;;;;;5065544;28;20684;-86
2021/06/21 02:37:31;;;;;;;9.38;8.25;;;21.90;99.90;;;;;;5066669;28;20273;-86
2021/06/21 02:39:59;;;;;;;9.68;8.75;;;21.90;99.90;;;;;;5049234;28;20658;-86
2021/06/21 02:42:26;;;;;;;10.93;8.65;;;22.10;99.90;;;;;;5027065;28;20219;-85
2021/06/21 02:44:53;;;;;;;11.07;10.07;;;22.10;99.90;;;;;;5026954;28;20212;-86
2021/06/21 02:47:33;;;;;;;10.27;9.15;;;22.20;99.90;;;;;;5043321;28;20204;-86
2021/06/21 02:50:01;;;;;;;10.48;8.25;;;22.30;99.90;;;;;;5053008;28;20199;-86
2021/06/21 02:52:37;;;;;;;9.68;8.60;;;22.20;99.90;;;;;;5027212;28;20243;-86
2021/06/21 02:55:12;;;;;;;10.73;9.27;;;22.10;99.90;;;;;;5051422;28;20211;-86
2021/06/21 02:57:47;;;;;;;11.13;10.18;;;22.00;99.90;;;;;;5042522;28;20196;-86
2021/06/21 03:00:15;;;;;;;12.35;9.65;;;22.00;99.90;;;;;;5024775;28;20204;-86
2021/06/21 03:02:43;;;;;;;9.55;8.55;;;22.00;99.90;;;;;;5045898;28;20230;-86
2021/06/21 03:05:11;;;;;;;13.10;8.90;;;22.00;99.90;;;;;;5062169;28;20230;-86
2021/06/21 03:07:40;;;;;;;10.80;9.90;;;21.80;99.90;;;;;;5044048;28;20680;-86
2021/06/21 03:10:10;;;;;;;11.80;9.85;;;22.00;99.90;;;;;;5062350;28;20206;-86
2021/06/21 03:12:38;;;;;;;10.80;9.80;;;22.10;99.90;;;;;;5060870;28;20649;-86
2021/06/21 03:15:07;;;;;;;11.10;9.98;;;22.00;99.90;;;;;;5044232;28;20237;-86
2021/06/21 03:17:36;;;;;;;12.40;10.98;;;21.90;99.90;;;;;;5028590;28;20221;-85
2021/06/21 03:20:03;;;;;;;8.48;7.78;;;21.90;99.90;;;;;;5058564;28;20203;-85
2021/06/21 03:22:31;;;;;;;10.68;9.70;;;21.80;99.90;;;;;;5066225;28;20712;-85
2021/06/21 03:25:01;;;;;;;10.82;9.73;;;21.70;99.90;;;;;;5054935;28;20218;-82
2021/06/21 03:27:36;;;;;;;11.07;9.00;;;21.80;99.90;;;;;;5044738;28;20235;-82
2021/06/21 03:30:07;;;;;;;10.30;9.23;;;22.10;99.90;;;;;;5060941;28;20198;-84
2021/06/21 03:32:37;;;;;;;10.23;9.23;;;21.80;99.90;;;;;;5061031;28;20237;-82
2021/06/21 03:35:08;;;;;;;9.43;8.50;;;21.70;99.90;;;;;;5077618;28;20179;-83
2021/06/21 03:37:36;;;;;;;8.57;7.82;;;21.70;99.90;;;;;;5078202;28;20187;-83
2021/06/21 03:40:04;;;;;;;10.43;8.40;;;21.70;99.90;;;;;;5077838;28;20206;-83
2021/06/21 03:42:33;;;;;;;9.40;8.32;;;21.70;99.90;;;;;;5060720;28;20231;-83
2021/06/21 03:52:58;;;;;;;8.82;8.02;;;21.50;99.90;;;;;;5069109;28;20261;-82
2021/06/21 03:58:58;;;;;;;7.60;7.00;;;21.60;99.90;;;;;;5075697;28;20194;-82
2021/06/21 04:01:25;;;;;;;8.15;7.38;;;21.60;99.90;;;;;;5095703;28;20202;-82
2021/06/21 04:03:58;;;;;;;7.57;6.88;;;21.50;99.90;;;;;;5079378;28;20186;-83
2021/06/21 04:06:25;;;;;;;7.95;7.25;;;21.50;99.90;;;;;;5079563;28;20225;-83
2021/06/21 04:08:52;;;;;;;8.77;7.35;;;21.50;99.90;;;;;;5042703;28;20204;-83
2021/06/21 04:11:19;;;;;;;7.57;6.97;;;21.50;99.90;;;;;;5045144;28;20255;-84
2021/06/21 04:13:46;;;;;;;7.63;6.95;;;21.50;99.90;;;;;;5037686;28;20208;-84
2021/06/21 04:16:15;;;;;;;7.25;6.65;;;21.50;99.90;;;;;;5038833;28;20200;-84
2021/06/21 04:18:42;;;;;;;77.03;61.13;;;21.70;99.90;;;;;;5021662;28;20269;-84
2021/06/21 04:21:11;;;;;;;8.75;8.05;;;21.80;99.90;;;;;;5038836;28;20227;-84
2021/06/21 04:23:38;;;;;;;8.55;6.53;;;21.70;99.90;;;;;;5040050;28;20266;-84
2021/06/21 04:26:05;;;;;;;5.65;5.07;;;21.80;99.90;;;;;;5040761;28;20323;-83
2021/06/21 04:28:35;;;;;;;5.60;5.13;;;21.70;99.90;;;;;;5021421;28;20200;-84
2021/06/21 04:31:02;;;;;;;5.38;4.95;;;21.60;99.90;;;;;;5029635;28;20223;-84
2021/06/21 04:33:32;;;;;;;6.03;5.53;;;21.70;99.90;;;;;;5069314;28;20195;-83
2021/06/21 04:35:59;;;;;;;6.15;5.65;;;21.50;99.90;;;;;;5060960;28;20700;-83
2021/06/21 04:38:27;;;;;;;5.43;5.03;;;21.60;99.90;;;;;;5058486;28;20199;-84
2021/06/21 04:40:54;;;;;;;5.68;5.22;;;21.70;99.90;;;;;;5032941;28;20211;-84
2021/06/21 04:43:23;;;;;;;4.85;4.32;;;21.80;99.90;;;;;;5021107;28;20678;-84
2021/06/21 04:45:50;;;;;;;7.60;6.95;;;21.90;99.90;;;;;;5038632;28;20279;-83
2021/06/21 04:48:20;;;;;;;14.57;13.18;;;21.90;99.90;;;;;;5040658;28;20242;-83
2021/06/21 04:50:52;;;;;;;16.60;15.10;;;22.00;99.90;;;;;;5041278;28;20689;-83
2021/06/21 04:53:24;;;;;;;7.93;7.13;;;21.90;99.90;;;;;;5041017;28;20204;-83
2021/06/21 04:55:51;;;;;;;8.13;7.43;;;21.80;99.90;;;;;;5040909;28;20214;-83
2021/06/21 04:58:18;;;;;;;6.95;6.45;;;21.80;99.90;;;;;;5040355;28;20234;-83
2021/06/21 05:00:45;;;;;;;6.43;5.93;;;21.80;99.90;;;;;;5059145;28;20577;-83
2021/06/21 05:03:23;;;;;;;5.65;5.25;;;21.90;99.90;;;;;;5059268;28;20243;-83
2021/06/21 05:09:18;;;;;;;5.85;5.35;;;21.70;99.90;;;;;;5041639;28;20345;-83
2021/06/21 05:11:46;;;;;;;6.10;5.50;;;21.60;99.90;;;;;;5041143;28;20243;-83
2021/06/21 05:14:18;;;;;;;5.20;4.50;;;21.70;99.90;;;;;;5027017;28;20188;-84
2021/06/21 05:16:46;;;;;;;5.28;4.78;;;21.80;99.90;;;;;;5038503;28;20200;-84
2021/06/21 05:19:12;;;;;;;6.15;5.65;;;21.70;99.90;;;;;;5041071;28;20219;-84
2021/06/21 05:21:41;;;;;;;5.22;4.80;;;21.70;99.90;;;;;;5043235;28;20227;-84
2021/06/21 05:24:08;;;;;;;5.82;5.43;;;21.60;99.90;;;;;;5025405;28;20242;-84
2021/06/21 05:26:35;;;;;;;5.70;5.15;;;21.60;99.90;;;;;;5042400;28;20230;-83
2021/06/21 05:29:02;;;;;;;5.13;4.72;;;21.50;99.90;;;;;;5042316;28;20192;-84
2021/06/21 05:31:40;;;;;;;7.40;6.47;;;21.50;99.90;;;;;;5042566;28;20228;-84
2021/06/21 05:34:10;;;;;;;19.23;16.58;;;21.60;99.90;;;;;;5043241;28;20275;-83
2021/06/21 05:36:37;;;;;;;26.00;22.73;;;21.60;99.90;;;;;;5036133;28;20204;-83
2021/06/21 05:39:06;;;;;;;6.45;5.85;;;21.60;99.90;;;;;;5025594;28;20196;-83
2021/06/21 05:41:33;;;;;;;8.88;6.10;;;21.80;99.90;;;;;;5041633;28;20242;-82
2021/06/21 05:44:00;;;;;;;4.85;4.45;;;21.90;99.90;;;;;;5044363;28;20223;-83
2021/06/21 05:46:27;;;;;;;8.23;7.53;;;21.90;99.90;;;;;;5044054;28;20231;-83
2021/06/21 05:48:54;;;;;;;5.43;4.82;;;21.90;99.90;;;;;;5042853;28;20690;-83
2021/06/21 05:51:21;;;;;;;33.88;30.70;;;21.90;99.90;;;;;;5041865;28;20636;-83
2021/06/21 05:53:51;;;;;;;8.18;7.35;;;22.10;99.90;;;;;;5042168;28;20215;-83
2021/06/21 05:56:19;;;;;;;5.65;5.15;;;22.00;99.90;;;;;;5024130;28;20219;-83
2021/06/21 05:58:47;;;;;;;5.40;4.95;;;22.00;99.90;;;;;;5054584;28;20204;-84
2021/06/21 06:01:14;;;;;;;6.03;5.43;;;21.90;99.90;;;;;;5043030;28;20223;-84
2021/06/21 06:03:41;;;;;;;4.22;3.92;;;21.90;99.90;;;;;;5060461;28;20195;-83
2021/06/21 06:06:08;;;;;;;5.90;5.38;;;21.80;99.90;;;;;;5042417;28;20219;-84
2021/06/21 06:08:37;;;;;;;5.90;5.30;;;22.00;99.90;;;;;;5061287;28;20214;-84
2021/06/21 06:11:04;;;;;;;6.20;4.55;;;21.90;99.90;;;;;;5061027;28;20281;-84
2021/06/21 06:13:34;;;;;;;4.03;3.75;;;22.00;99.90;;;;;;5044503;28;20199;-84
2021/06/21 06:16:07;;;;;;;4.85;4.45;;;21.90;99.90;;;;;;5056680;28;20435;-84
2021/06/21 06:18:37;;;;;;;5.70;4.78;;;22.00;99.90;;;;;;5042732;28;20256;-84
2021/06/21 06:21:33;;;;;;;4.15;3.85;;;22.10;99.90;;;;;;5040775;28;20220;-84
2021/06/21 06:24:13;;;;;;;6.10;5.55;;;22.20;99.90;;;;;;5042111;28;20662;-84
2021/06/21 06:26:42;;;;;;;6.88;6.28;;;22.50;99.90;;;;;;5037298;28;20222;-83
2021/06/21 06:29:14;;;;;;;6.88;6.20;;;22.50;99.90;;;;;;5041979;28;20203;-84
2021/06/21 06:31:45;;;;;;;7.47;6.85;;;22.60;99.90;;;;;;5042601;28;20212;-84
2021/06/21 06:34:12;;;;;;;6.38;5.88;;;22.50;99.90;;;;;;5053586;28;20203;-83
2021/06/21 06:36:39;;;;;;;6.38;5.97;;;22.70;99.90;;;;;;5061674;28;20657;-84
2021/06/21 06:39:07;;;;;;;6.22;5.72;;;22.50;99.90;;;;;;5048298;28;20281;-84
2021/06/21 06:41:35;;;;;;;6.30;5.70;;;22.40;99.90;;;;;;5053092;28;20219;-85
2021/06/21 06:44:02;;;;;;;5.93;5.38;;;22.50;99.90;;;;;;5046455;28;20196;-87
2021/06/21 06:46:30;;;;;;;5.45;5.00;;;22.50;99.90;;;;;;5035170;28;20228;-84
2021/06/21 06:48:58;;;;;;;5.10;4.70;;;22.40;99.90;;;;;;5039776;28;20192;-84
2021/06/21 06:51:27;;;;;;;5.32;4.93;;;22.50;99.90;;;;;;5040345;28;20487;-84
2021/06/21 06:54:02;;;;;;;6.05;5.57;;;22.50;99.90;;;;;;5038791;28;20200;-85
2021/06/21 06:59:14;;;;;;;9.05;6.15;;;22.60;99.90;;;;;;5035224;28;20253;-85
2021/06/21 07:01:43;;;;;;;6.20;5.70;;;22.70;99.90;;;;;;5016740;28;20239;-85
2021/06/21 07:04:10;;;;;;;5.70;5.30;;;22.60;99.90;;;;;;5019522;28;20212;-85
2021/06/21 07:06:37;;;;;;;6.75;6.20;;;22.40;99.90;;;;;;5036374;28;20717;-85
2021/06/21 07:09:05;;;;;;;6.60;6.00;;;22.40;99.90;;;;;;5002762;28;20264;-85
2021/06/21 07:11:36;;;;;;;6.65;6.22;;;22.30;99.90;;;;;;5037534;28;20216;-85
2021/06/21 07:14:03;;;;;;;6.85;6.25;;;22.20;99.90;;;;;;5037496;28;20737;-85
2021/06/21 07:16:31;;;;;;;9.48;8.02;;;22.10;99.90;;;;;;5018554;28;20223;-84
2021/06/21 07:18:59;;;;;;;9.20;8.40;;;22.10;99.90;;;;;;5019790;28;20246;-83
2021/06/21 07:21:26;;;;;;;8.93;8.23;;;21.90;99.90;;;;;;5020588;28;20266;-83
2021/06/21 07:23:54;;;;;;;10.35;9.27;;;21.80;99.90;;;;;;5037964;28;20701;-83
2021/06/21 07:26:21;;;;;;;8.40;7.55;;;21.80;99.90;;;;;;5034034;28;20307;-84
2021/06/21 07:28:50;;;;;;;10.63;9.63;;;21.50;99.90;;;;;;5018069;28;20420;-84
2021/06/21 07:31:18;;;;;;;14.55;12.70;;;21.40;99.90;;;;;;5033328;28;20633;-85
2021/06/21 07:33:45;;;;;;;13.25;11.88;;;21.50;99.90;;;;;;5033716;28;20246;-84
2021/06/21 07:36:14;;;;;;;12.32;9.25;;;21.30;99.90;;;;;;5033884;28;20204;-84
2021/06/21 07:38:41;;;;;;;11.90;10.68;;;20.50;99.90;;;;;;5046554;28;20243;-84
2021/06/21 07:41:09;;;;;;;14.85;13.45;;;20.20;99.90;;;;;;5053301;28;20609;-84
2021/06/21 07:43:36;;;;;;;10.93;9.75;;;20.50;99.90;;;;;;5044192;28;20200;-83
2021/06/21 07:46:03;;;;;;;11.55;10.63;;;20.70;99.90;;;;;;5035654;28;20224;-84
2021/06/21 07:48:31;;;;;;;11.77;10.63;;;20.80;99.90;;;;;;5036189;28;20283;-84
2021/06/21 07:50:58;;;;;;;9.95;9.07;;;20.90;99.90;;;;;;5027517;28;20196;-84
2021/06/21 07:53:26;;;;;;;10.75;9.65;;;21.00;99.90;;;;;;5044572;28;20563;-84
2021/06/21 07:55:53;;;;;;;13.63;12.13;;;21.40;99.90;;;;;;5045653;28;20242;-85
2021/06/21 07:58:20;;;;;;;14.25;13.02;;;21.80;99.90;;;;;;5045314;28;20200;-85
2021/06/21 08:00:47;;;;;;;17.52;15.73;;;22.10;99.90;;;;;;5029888;28;20264;-83
2021/06/21 08:03:14;;;;;;;15.65;14.20;;;22.30;99.90;;;;;;5075479;28;20198;-82
2021/06/21 08:05:47;;;;;;;15.35;14.10;;;22.40;99.90;;;;;;5065994;28;20223;-84
2021/06/21 08:08:14;;;;;;;15.77;14.40;;;22.60;99.90;;;;;;5049640;28;20199;-83
2021/06/21 08:10:43;;;;;;;15.73;14.23;;;22.70;99.90;;;;;;5069329;28;20199;-83
2021/06/21 08:13:10;;;;;;;14.93;13.38;;;22.60;99.90;;;;;;5042770;28;20298;-84
2021/06/21 08:15:38;;;;;;;11.35;10.25;;;22.70;99.90;;;;;;5031156;28;20200;-84
2021/06/21 08:18:05;;;;;;;10.75;9.88;;;22.70;99.90;;;;;;5060782;28;20195;-84
2021/06/21 08:20:33;;;;;;;12.48;10.52;;;22.60;99.90;;;;;;5055448;28;20234;-84
2021/06/21 08:23:00;;;;;;;10.20;9.40;;;22.60;99.90;;;;;;5065346;28;20238;-84
2021/06/21 08:25:27;;;;;;;12.80;11.77;;;22.40;99.90;;;;;;5065501;28;20205;-83
2021/06/21 08:27:56;;;;;;;10.32;9.32;;;22.20;99.90;;;;;;5045247;28;20298;-83
2021/06/21 08:30:23;;;;;;;11.13;10.02;;;22.30;99.90;;;;;;5037348;28;20212;-83
2021/06/21 08:32:51;;;;;;;11.73;10.73;;;22.40;99.90;;;;;;5047802;28;20254;-84
2021/06/21 08:35:18;;;;;;;14.50;13.40;;;22.70;99.90;;;;;;5046436;28;20192;-83
2021/06/21 08:37:45;;;;;;;12.27;11.27;;;22.90;99.90;;;;;;5026971;28;20303;-83
2021/06/21 08:40:13;;;;;;;13.35;12.18;;;22.90;99.90;;;;;;5031112;28;20208;-83
2021/06/21 08:42:40;;;;;;;10.60;9.80;;;23.30;99.90;;;;;;5042402;28;20751;-84
2021/06/21 08:45:12;;;;;;;8.80;8.10;;;23.50;99.90;;;;;;5048880;28;20195;-84
2021/06/21 08:47:39;;;;;;;8.60;7.75;;;23.80;99.90;;;;;;5048620;28;20243;-84
2021/06/21 08:50:09;;;;;;;7.22;6.60;;;24.00;99.90;;;;;;5032033;28;20215;-85
2021/06/21 08:52:36;;;;;;;7.20;6.65;;;24.20;99.90;;;;;;5038200;28;20219;-85
2021/06/21 08:55:05;;;;;;;7.32;6.45;;;24.20;99.90;;;;;;5023248;28;20259;-84
2021/06/21 08:57:33;;;;;;;7.57;5.10;;;24.30;99.90;;;;;;5041011;28;20196;-84
2021/06/21 09:00:00;;;;;;;5.32;4.85;;;24.50;99.90;;;;;;5040667;28;20226;-83
2021/06/21 09:02:29;;;;;;;6.32;5.90;;;23.30;99.90;;;;;;5022223;28;20220;-83
2021/06/21 09:04:56;;;;;;;5.30;4.78;;;23.40;99.90;;;;;;5039891;28;20230;-84
2021/06/21 09:07:25;;;;;;;7.70;5.70;;;23.50;99.90;;;;;;5040259;28;20760;-83
2021/06/21 09:09:54;;;;;;;5.30;4.78;;;22.90;99.90;;;;;;5039686;28;20573;-84
2021/06/21 09:12:23;;;;;;;5.30;4.65;;;22.30;99.90;;;;;;5039144;28;20227;-84
2021/06/21 09:14:51;;;;;;;6.32;5.30;;;22.70;99.90;;;;;;5023082;28;20269;-83
2021/06/21 09:17:20;;;;;;;8.13;5.03;;;23.10;99.90;;;;;;5056304;28;20237;-83
2021/06/21 09:19:53;;;;;;;41.17;37.05;;;23.40;99.90;;;;;;5060572;28;20199;-83
2021/06/21 09:22:26;;;;;;;6.88;5.75;;;23.40;99.90;;;;;;5059813;28;20227;-86
2021/06/21 09:24:53;;;;;;;6.90;4.65;;;23.90;99.90;;;;;;5041855;28;20199;-84
2021/06/21 09:27:22;;;;;;;7.28;5.00;;;24.10;99.90;;;;;;5039473;28;20211;-84
2021/06/21 09:29:51;;;;;;;8.02;4.80;;;23.50;99.90;;;;;;5039719;28;20243;-83
2021/06/21 09:32:19;;;;;;;9.40;6.82;;;22.90;99.90;;;;;;5022307;28;20296;-84
2021/06/21 09:34:46;;;;;;;9.45;5.38;;;23.00;99.90;;;;;;5042771;28;20204;-84
2021/06/21 09:37:16;;;;;;;5.50;4.45;;;23.30;99.90;;;;;;5052893;28;20250;-84
2021/06/21 09:39:45;;;;;;;9.13;4.68;;;23.20;99.90;;;;;;5040196;28;20208;-83
2021/06/21 09:42:15;;;;;;;7.47;4.00;;;22.80;99.90;;;;;;5039906;28;20231;-84
2021/06/21 09:44:44;;;;;;;8.10;4.82;;;22.90;99.90;;;;;;5023577;28;20211;-84
2021/06/21 09:47:14;;;;;;;9.80;4.60;;;23.40;99.90;;;;;;5040458;28;20228;-84
2021/06/21 09:50:07;;;;;;;7.40;3.72;;;23.50;99.90;;;;;;5021349;28;20196;-85
2021/06/21 09:52:47;;;;;;;12.32;4.55;;;23.60;99.90;;;;;;5018695;28;20319;-84
2021/06/21 09:55:17;;;;;;;4.10;2.28;;;23.80;99.90;;;;;;5021188;28;20265;-83
2021/06/21 09:57:46;;;;;;;6.28;2.75;;;23.90;99.90;;;;;;5021762;28;20200;-83
2021/06/21 10:04:23;;;;;;;9.27;2.90;;;24.30;99.90;;;;;;5053145;28;20218;-85
2021/06/21 10:06:50;;;;;;;4.53;2.20;;;24.70;99.90;;;;;;5035254;28;20276;-83
2021/06/21 10:09:19;;;;;;;6.88;2.30;;;24.60;99.90;;;;;;5036166;28;20223;-84
2021/06/21 10:11:46;;;;;;;5.88;2.35;;;24.70;99.90;;;;;;5018103;28;20282;-83
2021/06/21 10:14:15;;;;;;;4.32;2.13;;;24.60;99.90;;;;;;5036812;28;20262;-83
2021/06/21 10:16:43;;;;;;;4.72;3.08;;;24.50;99.90;;;;;;5036508;28;20242;-84
2021/06/21 10:19:11;;;;;;;9.43;4.00;;;24.30;99.90;;;;;;5035481;28;20234;-83
2021/06/21 10:21:40;;;;;;;7.28;2.58;;;24.40;99.90;;;;;;5035772;28;20235;-83
2021/06/21 10:24:09;;;;;;;5.13;1.95;;;24.40;99.90;;;;;;5018157;28;20269;-83
2021/06/21 10:26:39;;;;;;;6.65;2.38;;;24.60;99.90;;;;;;5018217;28;20227;-84
2021/06/21 10:29:07;;;;;;;5.55;2.97;;;24.60;99.90;;;;;;5017993;28;20238;-84
2021/06/21 10:31:35;;;;;;;11.13;4.00;;;24.90;99.90;;;;;;5033089;28;20721;-85
2021/06/21 10:34:05;;;;;;;9.68;3.45;;;25.00;99.90;;;;;;5032812;28;20234;-84
2021/06/21 10:36:43;;;;;;;4.90;2.72;;;25.50;99.90;;;;;;5032728;28;20441;-86
2021/06/21 10:39:14;;;;;;;9.25;3.38;;;25.10;99.90;;;;;;5037697;28;20624;-83
2021/06/21 10:42:05;;;;;;;5.13;2.22;;;24.70;99.90;;;;;;5051569;28;20298;-82
2021/06/21 10:44:37;;;;;;;6.75;2.33;;;24.20;99.90;;;;;;5055787;28;20290;-83
2021/06/21 10:47:30;;;;;;;9.35;5.22;;;24.00;99.90;;;;;;5040230;28;20566;-83
2021/06/21 10:50:00;;;;;;;6.15;5.65;;;24.40;99.90;;;;;;5024186;28;20204;-85
2021/06/21 10:52:34;;;;;;;7.72;7.00;;;24.10;99.90;;;;;;5025930;28;20605;-86
2021/06/21 10:55:46;;;;;;;7.60;7.00;;;24.20;99.90;;;;;;5035099;28;20211;-88
2021/06/21 10:58:46;;;;;;;10.88;7.53;;;24.10;99.90;;;;;;5031592;28;20196;-84
2021/06/21 11:01:19;;;;;;;8.65;6.55;;;23.60;99.90;;;;;;5020130;28;20237;-83
2021/06/21 11:03:47;;;;;;;8.65;7.85;;;23.80;99.90;;;;;;5024749;28;20662;-86
2021/06/21 11:06:36;;;;;;;8.65;6.30;;;23.60;99.90;;;;;;5035021;28;20303;-88
2021/06/21 11:09:16;;;;;;;10.02;6.97;;;23.70;99.90;;;;;;5034965;28;20204;-88
2021/06/21 11:11:54;;;;;;;7.65;6.75;;;24.10;99.90;;;;;;5033934;28;20226;-87
2021/06/21 11:14:32;;;;;;;5.65;5.00;;;24.20;99.90;;;;;;5019645;28;20196;-88
2021/06/21 11:17:30;;;;;;;6.72;6.10;;;24.00;99.90;;;;;;5020287;28;20662;-87
2021/06/21 11:19:57;;;;;;;7.97;6.03;;;24.20;99.90;;;;;;5016985;28;20207;-89
2021/06/21 11:23:11;;;;;;;4.88;4.43;;;24.50;99.90;;;;;;5036351;28;20235;-88
2021/06/21 11:25:43;;;;;;;11.57;5.53;;;25.00;99.90;;;;;;5015745;28;20222;-88
2021/06/21 11:28:38;;;;;;;6.85;4.88;;;25.50;99.90;;;;;;5055408;28;20291;-89
2021/06/21 11:31:26;;;;;;;7.32;4.45;;;25.70;99.90;;;;;;5001227;28;20247;-90
2021/06/21 11:34:10;;;;;;;6.35;3.60;;;25.70;99.90;;;;;;5034496;28;20216;-89
2021/06/21 11:36:51;;;;;;;3.70;3.40;;;25.50;99.90;;;;;;5021561;28;20200;-88
2021/06/21 11:39:33;;;;;;;6.00;4.13;;;25.00;99.90;;;;;;5016770;28;20202;-86
2021/06/21 11:42:18;;;;;;;5.88;4.60;;;24.50;99.90;;;;;;5032678;28;20247;-87
2021/06/21 11:44:54;;;;;;;4.50;3.33;;;24.70;99.90;;;;;;5033880;28;20199;-88
2021/06/21 11:47:24;;;;;;;5.03;3.50;;;24.50;99.90;;;;;;5016211;28;20229;-86
2021/06/21 11:49:56;;;;;;;5.72;4.13;;;24.40;99.90;;;;;;5033014;28;20203;-88
2021/06/21 11:55:31;;;;;;;4.60;4.10;;;24.30;99.90;;;;;;5029705;28;20203;-87
2021/06/21 11:57:59;;;;;;;6.68;5.20;;;24.10;99.90;;;;;;5062343;28;20198;-88
2021/06/21 12:00:47;;;;;;;5.82;5.20;;;24.00;99.90;;;;;;5022308;28;20196;-88
2021/06/21 12:03:16;;;;;;;4.63;4.03;;;24.20;99.90;;;;;;5032441;28;20700;-86
2021/06/21 12:05:56;;;;;;;7.07;4.13;;;24.30;99.90;;;;;;5034861;28;20259;-89
2021/06/21 12:08:56;;;;;;;8.38;4.28;;;24.00;99.90;;;;;;5000522;28;20238;-88
2021/06/21 12:11:25;;;;;;;5.82;4.32;;;24.50;99.90;;;;;;5017774;28;20216;-89
2021/06/21 12:14:02;;;;;;;7.35;4.68;;;25.00;99.90;;;;;;5037101;28;20192;-87
2021/06/21 12:16:36;;;;;;;5.53;4.97;;;25.20;99.90;;;;;;5035695;28;20200;-88
2021/06/21 12:19:06;;;;;;;7.30;6.10;;;25.50;99.90;;;;;;5049374;28;20323;-89
2021/06/21 12:21:36;;;;;;;7.63;6.18;;;25.50;99.90;;;;;;5035618;28;20277;-88
2021/06/21 12:24:37;;;;;;;15.18;6.57;;;25.40;99.90;;;;;;5035642;28;20211;-88
2021/06/21 12:27:10;;;;;;;6.40;5.78;;;25.30;99.90;;;;;;5006380;28;20739;-89
2021/06/21 12:29:41;;;;;;;8.52;6.78;;;25.00;99.90;;;;;;5045197;28;20228;-87
2021/06/21 12:32:10;;;;;;;6.93;6.32;;;25.00;99.90;;;;;;5072510;28;20695;-88
2021/06/21 12:34:59;;;;;;;6.97;6.45;;;25.20;99.90;;;;;;5075799;28;20202;-83
2021/06/21 12:37:31;;;;;;;9.43;5.55;;;25.10;99.90;;;;;;5057225;28;20579;-86
2021/06/21 12:40:00;;;;;;;5.93;5.32;;;25.30;99.90;;;;;;5057627;28;20289;-85
2021/06/21 12:42:30;;;;;;;7.45;5.30;;;25.50;99.90;;;;;;5074217;28;20761;-83
2021/06/21 12:44:57;;;;;;;5.97;5.47;;;25.70;99.90;;;;;;5074303;28;20201;-83
2021/06/21 12:47:27;;;;;;;5.35;4.53;;;25.80;99.90;;;;;;5052284;28;20428;-83
2021/06/21 12:50:04;;;;;;;7.30;5.05;;;25.70;99.90;;;;;;5057093;28;20658;-84
2021/06/21 12:52:32;;;;;;;5.00;4.55;;;25.80;99.90;;;;;;5053697;28;20225;-83
2021/06/21 12:55:08;;;;;;;7.45;4.60;;;25.90;99.90;;;;;;5044389;28;20184;-84
2021/06/21 12:57:52;;;;;;;3.83;2.50;;;26.20;99.90;;;;;;5035643;28;20681;-82
2021/06/21 13:00:39;;;;;;;5.47;3.10;;;25.90;99.90;;;;;;5046052;28;20211;-82
2021/06/21 13:03:14;;;;;;;2.90;2.45;;;25.30;99.90;;;;;;5054267;28;20285;-83
2021/06/21 13:05:51;;;;;;;4.63;2.88;;;24.90;99.90;;;;;;5053119;28;20207;-83
2021/06/21 13:08:31;;;;;;;4.13;2.90;;;24.90;99.90;;;;;;5061244;28;20586;-83
2021/06/21 13:11:03;;;;;;;4.75;3.47;;;25.00;99.90;;;;;;5055607;28;20218;-83
2021/06/21 13:13:41;;;;;;;3.55;3.22;;;25.30;99.90;;;;;;5056582;28;20203;-84
2021/06/21 13:16:09;;;;;;;3.30;3.00;;;26.00;99.90;;;;;;5056634;28;20611;-84
2021/06/21 13:18:47;;;;;;;2.65;2.33;;;26.50;99.90;;;;;;5055859;28;20195;-84
2021/06/21 13:21:16;;;;;;;4.65;2.65;;;26.30;99.90;;;;;;5039263;28;20227;-84
2021/06/21 13:23:48;;;;;;;4.47;3.03;;;26.10;99.90;;;;;;5056960;28;20222;-82
2021/06/21 13:26:15;;;;;;;4.82;3.20;;;25.90;99.90;;;;;;5041193;28;20206;-83
2021/06/21 13:28:43;;;;;;;4.20;3.33;;;25.70;99.90;;;;;;5041889;28;20223;-83